Flight Track Log - Related Links

Times and Time Zones

All times are in EDT time to prevent confusion due to time zone crossing. See the SWA1017 flight status page for this flight to view local times or setup timezone preferences in your user account.

Time Position Orientation Groundspeed Altitude Reporting Facility
EDT Latitude Longitude Course Direction KTS MPH feet Rate Location/Type
Thu 02:56:09 PM 26.2153 -97.6478 80° East 130 150 700  Level Houston Center
Thu 02:56:58 PM 26.2217 -97.6058 80° East 178 205 2,100 1,892 Climbing Houston Center
Thu 02:58:00 PM 26.2614 -97.5547 49° Northeast 227 261 4,200 2,323 Climbing Houston Center
Thu 02:59:02 PM 26.3472 -97.5458 North 287 330 6,900 3,048 Climbing Houston Center
Thu 03:00:04 PM 26.4294 -97.5381 North 295 339 10,500 2,806 Climbing Houston Center
Thu 03:01:06 PM 26.5267 -97.5292 North 333 383 12,700 2,640 Climbing Houston Center
Thu 03:02:09 PM 26.6258 -97.5181 North 356 410 16,000 2,928 Climbing Houston Center
Thu 03:03:11 PM 26.7292 -97.5050 North 372 428 18,800 2,710 Climbing Houston Center
Thu 03:04:13 PM 26.8475 -97.4969 North 396 456 21,600 2,516 Climbing Houston Center
Thu 03:05:15 PM 26.9572 -97.4922 North 399 459 24,000 2,323 Climbing Houston Center
Thu 03:06:17 PM 27.0847 -97.4936 359° North 428 493 26,400 1,935 Climbing Houston Center
Thu 03:07:19 PM 27.1806 -97.5328 340° North 409 471 28,000 1,887 Climbing Houston Center
Thu 03:08:21 PM 27.3219 -97.5831 342° North 440 506 30,300 2,274 Climbing Houston Center
Thu 03:09:23 PM 27.4378 -97.6264 342° North 440 506 32,700 1,968 Climbing Houston Center
Thu 03:10:26 PM 27.5536 -97.6686 342° North 438 504 34,400 1,584 Climbing Houston Center
Thu 03:11:28 PM 27.6681 -97.7117 342° North 436 502 36,000 774 Climbing Houston Center
Thu 03:12:30 PM 27.7819 -97.7539 342° North 433 498 36,000  Level Houston Center
Thu 03:13:32 PM 27.9183 -97.8039 342° North 432 497 36,000  Level Houston Center
Thu 03:14:34 PM 28.0325 -97.8469 342° North 432 497 36,000  Level Houston Center
Thu 03:15:36 PM 28.1469 -97.8897 342° North 434 499 36,000  Level Houston Center
Thu 03:16:38 PM 28.2736 -97.9372 342° North 434 499 36,000  Level Houston Center
Thu 03:17:40 PM 28.3878 -97.9803 342° North 432 497 36,000  Level Houston Center
Thu 03:18:43 PM 28.5025 -98.0242 341° North 433 498 36,000  Level Houston Center
Thu 03:19:45 PM 28.6161 -98.0675 341° North 431 496 36,000  Level Houston Center
Thu 03:20:47 PM 28.7511 -98.1183 342° North 434 499 36,000 -242 Level Houston Center
Thu 03:21:49 PM 28.8636 -98.1619 341° North 428 493 35,500 -774 Descending Houston Center
Thu 03:22:51 PM 28.9844 -98.2078 342° North 425 489 34,400 -1,016 Descending Houston Center
Thu 03:23:53 PM 29.0969 -98.2517 341° North 426 490 33,400 -968 Descending Houston Center
Thu 03:24:55 PM 29.2186 -98.2975 342° North 427 491 32,400 -1,016 Descending Houston Center
Thu 03:25:57 PM 29.3319 -98.3403 342° North 428 493 31,300 -1,776 Descending Houston Center
Thu 03:27:00 PM 29.4519 -98.3864 342° North 423 487 28,700 -2,160 Descending Houston Center
Thu 03:28:02 PM 29.5419 -98.4211 341° North 418 481 26,800 -2,177 Descending Houston Center
Thu 03:29:04 PM 29.6739 -98.4397 353° North 401 461 24,200 -2,323 Descending Houston Center
Thu 03:30:06 PM 29.7697 -98.3717 32° Northeast 402 463 22,000 -2,177 Descending Houston Center
Thu 03:31:08 PM 29.8689 -98.3000 32° Northeast 391 450 19,700 -2,081 Descending Houston Center
Thu 03:32:10 PM 29.9569 -98.2358 32° Northeast 377 434 17,700 -1,984 Descending Houston Center
Thu 03:33:12 PM 30.0494 -98.1694 32° Northeast 364 419 15,600 -1,790 Descending Houston Center
Thu 03:34:14 PM 30.1250 -98.1006 38° Northeast 349 402 14,000 -2,064 Descending Houston Center
Thu 03:35:17 PM 30.1722 -97.9939 63° Northeast 345 397 11,300 -1,920 Descending Houston Center
Thu 03:36:19 PM 30.2119 -97.9017 63° Northeast 313 360 10,000 -1,500 Descending Houston Center
Thu 03:37:21 PM 30.2728 -97.8511 36° Northeast 292 336 8,200 -1,742 Descending Houston Center
Thu 03:38:23 PM 30.3486 -97.8175 21° North 290 334 6,400 -2,323 Descending Houston Center
Thu 03:39:25 PM 30.4003 -97.7586 45° Northeast 284 327 3,400 -1,645 Descending Houston Center
Thu 03:40:27 PM 30.3714 -97.6942 117° Southeast 233 268 3,000 -387 Descending Houston Center
Thu 03:41:29 PM 30.3219 -97.6797 166° South 200 230 2,600 -624 Descending Houston Center
Thu 03:42:32 PM 30.2733 -97.6817 182° South 180 207 1,700 -720 Descending Houston Center
Thu 03:43:34 PM 30.2269 -97.6794 178° South 164 189 1,100 -581 Descending Houston Center
Thu 03:45:00 PM 30.1945 -97.6699 221° Southwest  Level Estimated
Thu 03:52:00 PM 30.1945 -97.6699 221° Southwest  Level Estimated
Thu 03:53:00 PM 30.1945 -97.6699 221° Southwest  Level Estimated

Login

Don't have an account? Register now (free) for customized features, flight alerts, and more!